Time;durP1;ratioP1;P1;durP2;ratioP2;P2;SDS_P1;SDS_P2;PMS_P1;PMS_P2;Temp;Humidity;BMP_temperature;BMP_pressure;BME280_temperature;BME280_humidity;BME280_pressure;Samples;Min_cycle;Max_cycle;Signal;HPM_P1;HPM_P2
2022/01/22 00:01:48;;;;;;;4.17;3.60;;;;;;;;;;5068883;28;20270;-60
2022/01/22 00:04:13;;;;;;;3.90;3.50;;;3.90;99.90;;;;;;5068191;28;20211;-60
2022/01/22 00:06:39;;;;;;;4.70;3.97;;;3.90;99.90;;;;;;5069236;28;20482;-60
2022/01/22 00:09:05;;;;;;;3.87;3.47;;;3.90;99.90;;;;;;5064023;28;20221;-60
2022/01/22 00:11:39;;;;;;;3.30;3.00;;;4.00;99.90;;;;;;5074499;28;20171;-60
2022/01/22 00:14:24;;;;;;;3.63;3.33;;;3.90;99.90;;;;;;5069271;28;20456;-60
2022/01/22 00:16:59;;;;;;;3.60;3.30;;;3.90;99.90;;;;;;5069366;28;20445;-60
2022/01/22 00:19:26;;;;;;;4.37;3.93;;;3.90;99.90;;;;;;5074462;28;20444;-60
2022/01/22 00:21:53;;;;;;;4.43;4.03;;;3.90;99.90;;;;;;5069210;28;20447;-60
2022/01/22 00:24:19;;;;;;;4.27;3.87;;;3.90;99.90;;;;;;5069471;28;20438;-59
2022/01/22 00:26:46;;;;;;;3.40;2.97;;;4.00;99.90;;;;;;5069807;28;20454;-60
2022/01/22 00:29:12;;;;;;;5.10;3.20;;;6.60;99.90;;;;;;5066953;28;20464;-60
2022/01/22 00:31:39;;;;;;;4.50;3.63;;;4.10;99.90;;;;;;5068909;28;20452;-60
2022/01/22 00:34:06;;;;;;;3.10;2.90;;;4.10;99.90;;;;;;5068780;28;20459;-60
2022/01/22 00:36:33;;;;;;;3.53;3.23;;;4.10;99.90;;;;;;5068261;28;20450;-60
2022/01/22 00:38:58;;;;;;;3.10;2.80;;;4.10;99.90;;;;;;5067400;28;20450;-60
2022/01/22 00:41:24;;;;;;;3.73;3.20;;;4.00;99.90;;;;;;5069586;28;20495;-60
2022/01/22 00:43:50;;;;;;;2.77;2.57;;;4.10;99.90;;;;;;5067059;28;20266;-60
2022/01/22 00:46:15;;;;;;;3.00;2.60;;;4.00;99.90;;;;;;5069029;28;20668;-60
2022/01/22 00:48:41;;;;;;;2.60;2.03;;;4.00;99.90;;;;;;5066922;28;20215;-60
2022/01/22 00:51:07;;;;;;;5.03;3.03;;;4.10;99.90;;;;;;5069681;28;20191;-60
2022/01/22 00:53:32;;;;;;;3.50;2.90;;;4.10;99.90;;;;;;5067548;28;20234;-61
2022/01/22 00:55:58;;;;;;;3.17;2.87;;;4.10;99.90;;;;;;5069755;28;20187;-61
2022/01/22 00:58:24;;;;;;;4.97;3.17;;;4.10;99.90;;;;;;5070069;28;20561;-62
2022/01/22 01:00:50;;;;;;;3.57;3.10;;;4.10;99.90;;;;;;5069304;28;20453;-61
2022/01/22 01:03:15;;;;;;;3.23;2.80;;;4.10;99.90;;;;;;5071044;28;20710;-60
2022/01/22 01:05:41;;;;;;;4.30;3.60;;;4.00;99.90;;;;;;5070983;28;20183;-60
2022/01/22 01:08:07;;;;;;;2.90;2.70;;;4.10;99.90;;;;;;5070494;28;20262;-59
2022/01/22 01:10:33;;;;;;;3.10;2.63;;;4.10;99.90;;;;;;5072066;28;20176;-61
2022/01/22 01:12:58;;;;;;;2.57;2.30;;;4.10;99.90;;;;;;5072213;28;20475;-60
2022/01/22 01:15:43;;;;;;;7.00;2.10;;;4.10;99.90;;;;;;5072388;28;20444;-59
2022/01/22 01:32:12;;;;;;;2.60;2.30;;;4.30;99.90;;;;;;5072236;28;20501;-60
2022/01/22 01:34:42;;;;;;;3.40;2.37;;;;;;;;;;5072898;28;20437;-60
2022/01/22 01:37:08;;;;;;;2.73;2.37;;;4.40;99.90;;;;;;5069357;28;20537;-60
2022/01/22 01:39:36;;;;;;;2.63;2.40;;;4.40;99.90;;;;;;5077915;28;20452;-60
2022/01/22 01:42:09;;;;;;;2.67;2.20;;;4.40;99.90;;;;;;5071637;28;20919;-60
2022/01/22 01:44:35;;;;;;;2.10;1.90;;;4.40;99.90;;;;;;5072344;28;20517;-59
2022/01/22 01:47:03;;;;;;;2.50;2.30;;;4.40;99.90;;;;;;5071703;28;20851;-59
2022/01/22 01:49:29;;;;;;;2.70;2.50;;;4.40;99.90;;;;;;5060282;28;20481;-59
2022/01/22 01:51:58;;;;;;;3.07;2.77;;;4.40;99.90;;;;;;5071661;28;20807;-59
2022/01/22 01:54:47;;;;;;;3.77;3.47;;;4.40;99.90;;;;;;5072056;28;20441;-59
2022/01/22 02:00:00;;;;;;;3.67;2.77;;;4.50;99.90;;;;;;5070053;28;20468;-59
2022/01/22 02:02:29;;;;;;;3.50;2.80;;;4.50;99.90;;;;;;5071165;28;20442;-58
2022/01/22 02:04:55;;;;;;;3.60;3.30;;;4.50;99.90;;;;;;5074737;28;20433;-58
2022/01/22 02:07:20;;;;;;;3.97;2.87;;;4.50;99.90;;;;;;5078570;28;20845;-58
2022/01/22 02:09:46;;;;;;;3.00;2.60;;;4.40;99.90;;;;;;5077124;28;20189;-59
2022/01/22 02:12:19;;;;;;;3.23;2.93;;;4.50;99.90;;;;;;5068235;28;20208;-58
2022/01/22 02:25:41;;;;;;;2.90;2.70;;;4.50;99.90;;;;;;5086905;28;20468;-58
2022/01/22 02:28:07;;;;;;;4.77;3.70;;;4.60;99.90;;;;;;5068454;28;20864;-58
2022/01/22 02:30:37;;;;;;;3.27;2.97;;;4.70;99.90;;;;;;5071242;28;20182;-58
2022/01/22 02:35:50;;;;;;;2.90;2.60;;;4.70;99.90;;;;;;5070142;28;20448;-58
2022/01/22 02:38:22;;;;;;;3.97;3.57;;;4.70;99.90;;;;;;5068955;28;20510;-59
2022/01/22 02:40:49;;;;;;;4.80;3.43;;;4.70;99.90;;;;;;5070479;28;20544;-58
2022/01/22 02:43:16;;;;;;;4.20;3.10;;;4.80;99.90;;;;;;5077889;28;20459;-58
2022/01/22 02:45:44;;;;;;;5.13;3.90;;;4.90;99.90;;;;;;5070187;28;20449;-55
2022/01/22 02:48:10;;;;;;;4.97;3.97;;;4.90;99.90;;;;;;5068184;28;20997;-58
2022/01/22 02:50:36;;;;;;;3.53;3.20;;;4.90;99.90;;;;;;5070967;28;20933;-58
2022/01/22 02:53:10;;;;;;;4.20;2.87;;;4.90;99.90;;;;;;5068524;28;20477;-56
2022/01/22 02:55:36;;;;;;;4.37;3.47;;;5.00;99.90;;;;;;5071147;28;20447;-57
2022/01/22 02:58:03;;;;;;;3.93;2.97;;;5.10;99.90;;;;;;5076887;28;20453;-57
2022/01/22 03:00:28;;;;;;;4.17;3.43;;;5.10;99.90;;;;;;5069835;28;20951;-57
2022/01/22 03:02:54;;;;;;;4.90;3.77;;;5.10;99.90;;;;;;5085494;28;20543;-57
2022/01/22 03:05:20;;;;;;;5.53;3.70;;;5.10;99.90;;;;;;5085193;28;20214;-57
2022/01/22 03:07:51;;;;;;;3.90;3.23;;;5.60;99.90;;;;;;5070844;28;20239;-58
2022/01/22 03:10:21;;;;;;;5.10;3.77;;;5.10;99.90;;;;;;5051733;28;20442;-56
2022/01/22 03:13:20;;;;;;;5.00;3.87;;;5.10;99.90;;;;;;5067957;28;20935;-56
2022/01/22 03:29:02;;;;;;;3.40;2.60;;;5.20;99.90;;;;;;5067072;28;20528;-58
2022/01/22 03:31:27;;;;;;;3.00;2.33;;;5.30;99.90;;;;;;5070571;28;20439;-58
2022/01/22 03:33:53;;;;;;;3.20;2.67;;;5.30;99.90;;;;;;5069221;28;20434;-59
2022/01/22 03:36:19;;;;;;;3.10;2.17;;;5.30;99.90;;;;;;5077201;28;20181;-57
2022/01/22 03:38:45;;;;;;;2.70;2.27;;;5.30;99.90;;;;;;5071678;28;20190;-58
2022/01/22 03:41:11;;;;;;;2.83;2.50;;;5.30;99.90;;;;;;5049168;28;20444;-57
2022/01/22 03:43:38;;;;;;;2.57;1.83;;;5.50;99.90;;;;;;5068977;28;20791;-58
2022/01/22 03:46:04;;;;;;;3.10;2.33;;;5.40;99.90;;;;;;5069996;28;20654;-58
2022/01/22 03:48:30;;;;;;;3.53;2.30;;;5.40;99.90;;;;;;5071062;28;20641;-56
2022/01/22 03:50:55;;;;;;;4.53;2.50;;;5.50;99.90;;;;;;5070859;28;20438;-57
2022/01/22 03:53:21;;;;;;;3.70;3.13;;;5.40;99.90;;;;;;5056426;28;20220;-58
2022/01/22 03:56:02;;;;;;;4.13;2.50;;;5.40;99.90;;;;;;5074565;28;20212;-58
2022/01/22 03:58:28;;;;;;;3.20;1.90;;;5.40;99.90;;;;;;5063465;28;20578;-57
2022/01/22 04:01:11;;;;;;;2.23;1.80;;;5.40;99.90;;;;;;5077300;28;20967;-55
2022/01/22 04:03:41;;;;;;;2.20;1.87;;;5.40;99.90;;;;;;5076202;28;20447;-57
2022/01/22 04:08:56;;;;;;;2.13;1.70;;;5.40;99.90;;;;;;5068966;28;20470;-58
2022/01/22 04:11:22;;;;;;;1.67;1.40;;;5.40;99.90;;;;;;5053410;28;20815;-57
2022/01/22 04:13:51;;;;;;;1.53;1.40;;;5.50;99.90;;;;;;5072750;28;20453;-58
2022/01/22 04:16:16;;;;;;;1.87;1.77;;;5.50;99.90;;;;;;5072045;28;20174;-57
2022/01/22 04:27:21;;;;;;;1.50;1.30;;;5.50;99.90;;;;;;5069206;28;20454;-57
2022/01/22 04:29:41;;;;;;;1.40;1.30;;;5.60;99.90;;;;;;5069185;28;20566;-57
2022/01/22 04:32:07;;;;;;;2.00;1.43;;;5.50;99.90;;;;;;5074120;28;20445;-58
2022/01/22 04:34:33;;;;;;;1.93;1.60;;;5.50;99.90;;;;;;5074338;28;20443;-57
2022/01/22 04:37:00;;;;;;;1.60;1.50;;;5.50;99.90;;;;;;5076200;28;20850;-57
2022/01/22 04:39:27;;;;;;;2.87;1.50;;;5.60;99.90;;;;;;5073637;28;20197;-57
2022/01/22 04:41:55;;;;;;;1.40;1.30;;;5.60;99.90;;;;;;5071105;28;20441;-57
2022/01/22 04:44:25;;;;;;;1.80;1.17;;;5.60;99.90;;;;;;5072839;28;20453;-57
2022/01/22 04:46:59;;;;;;;0.83;0.83;;;5.40;99.90;;;;;;5074541;28;20482;-58
2022/01/22 04:57:20;;;;;;;1.43;0.80;;;5.40;99.90;;;;;;5070383;28;20452;-57
2022/01/22 04:59:46;;;;;;;1.23;1.07;;;5.40;99.90;;;;;;5074783;28;20785;-57
2022/01/22 05:02:12;;;;;;;0.90;0.90;;;5.40;99.90;;;;;;5072525;28;20524;-58
2022/01/22 05:04:37;;;;;;;1.60;1.50;;;5.30;99.90;;;;;;5073856;28;20200;-55
2022/01/22 05:07:03;;;;;;;2.10;1.70;;;5.20;99.90;;;;;;5072474;28;20193;-57
2022/01/22 05:09:29;;;;;;;1.50;1.37;;;5.30;99.90;;;;;;5087908;28;20584;-58
2022/01/22 05:11:54;;;;;;;1.33;1.23;;;5.20;99.90;;;;;;5074657;28;20184;-58
2022/01/22 05:14:20;;;;;;;1.03;0.90;;;5.20;99.90;;;;;;5071161;28;20180;-58
2022/01/22 05:16:46;;;;;;;1.27;1.10;;;5.20;99.90;;;;;;5072521;28;20195;-56
2022/01/22 05:20:02;;;;;;;2.30;1.30;;;5.10;99.90;;;;;;5071479;28;20210;-57
2022/01/22 05:22:11;;;;;;;1.30;1.20;;;5.20;99.90;;;;;;5058052;28;20248;-58
2022/01/22 05:24:41;;;;;;;1.67;0.90;;;5.10;99.90;;;;;;5076821;28;20493;-56
2022/01/22 05:32:29;;;;;;;1.80;1.37;;;5.10;99.90;;;;;;5074204;28;20184;-56
2022/01/22 05:37:38;;;;;;;1.40;1.30;;;5.00;99.90;;;;;;5069607;28;20473;-58
2022/01/22 05:40:05;;;;;;;1.67;1.30;;;5.10;99.90;;;;;;5071623;28;20470;-57
2022/01/22 05:42:30;;;;;;;1.50;1.40;;;5.10;99.90;;;;;;5069604;28;20184;-59
2022/01/22 05:44:56;;;;;;;2.33;1.47;;;5.10;99.90;;;;;;5072388;28;20468;-58
2022/01/22 05:47:25;;;;;;;1.70;1.60;;;5.00;99.90;;;;;;5074403;28;20638;-59
2022/01/22 05:49:52;;;;;;;3.50;1.77;;;;;;;;;;5075297;28;20209;-58
2022/01/22 05:52:26;;;;;;;1.50;1.40;;;5.10;99.90;;;;;;5072108;28;20447;-59
2022/01/22 06:00:01;;;;;;;3.20;2.20;;;5.10;99.90;;;;;;5071376;28;20190;-59
2022/01/22 06:02:27;;;;;;;2.40;2.13;;;5.00;99.90;;;;;;5071428;28;20907;-58
2022/01/22 06:04:52;;;;;;;2.40;1.80;;;4.90;99.90;;;;;;5071461;28;20452;-57
2022/01/22 06:07:19;;;;;;;2.17;1.77;;;4.90;99.90;;;;;;5071232;28;20191;-57
2022/01/22 06:10:02;;;;;;;2.97;1.50;;;4.90;99.90;;;;;;5068867;28;20288;-57
2022/01/22 06:12:56;;;;;;;2.27;1.97;;;4.80;99.90;;;;;;5068560;28;20400;-58
2022/01/22 06:15:22;;;;;;;2.03;1.83;;;4.80;99.90;;;;;;5064224;28;20470;-59
2022/01/22 06:17:47;;;;;;;9.30;2.20;;;4.70;99.90;;;;;;5066043;28;20940;-58
2022/01/22 06:20:15;;;;;;;2.73;2.20;;;;;;;;;;5071323;28;20686;-59
2022/01/22 06:22:41;;;;;;;3.23;2.33;;;4.70;99.90;;;;;;5073873;28;20190;-60
2022/01/22 06:25:08;;;;;;;3.30;2.53;;;4.50;99.90;;;;;;5082261;28;20486;-59
2022/01/22 06:27:33;;;;;;;4.77;1.90;;;4.50;99.90;;;;;;5082279;28;20872;-59
2022/01/22 06:29:59;;;;;;;3.03;2.73;;;4.60;99.90;;;;;;5067750;28;20525;-59
2022/01/22 06:32:25;;;;;;;3.37;2.47;;;4.50;99.90;;;;;;5069405;28;20226;-59
2022/01/22 06:34:51;;;;;;;4.33;3.20;;;4.50;99.90;;;;;;5068963;28;20614;-59
2022/01/22 06:37:17;;;;;;;4.43;2.50;;;4.60;99.90;;;;;;5070297;28;20640;-59
2022/01/22 06:42:29;;;;;;;3.60;2.43;;;4.60;99.90;;;;;;5070064;28;20719;-59
2022/01/22 06:44:55;;;;;;;4.47;2.60;;;4.60;99.90;;;;;;5070800;28;20496;-60
2022/01/22 06:47:20;;;;;;;4.03;2.70;;;4.60;99.90;;;;;;5065320;28;20453;-60
2022/01/22 06:49:46;;;;;;;3.93;2.70;;;4.60;99.90;;;;;;5071933;28;20446;-59
2022/01/22 06:52:12;;;;;;;3.30;2.13;;;4.60;99.90;;;;;;5079532;28;20183;-59
2022/01/22 06:54:38;;;;;;;5.03;3.00;;;4.70;99.90;;;;;;5082968;28;20180;-60
2022/01/22 06:57:04;;;;;;;7.53;3.17;;;4.70;99.90;;;;;;5091040;28;20568;-60
2022/01/22 06:59:29;;;;;;;3.30;2.60;;;4.70;99.90;;;;;;5073527;28;20466;-60
2022/01/22 07:01:56;;;;;;;5.87;3.10;;;;;;;;;;5071466;28;20549;-60
2022/01/22 07:04:22;;;;;;;4.27;2.80;;;4.80;99.90;;;;;;5083022;28;20279;-60
2022/01/22 07:06:47;;;;;;;3.63;2.60;;;4.80;99.90;;;;;;5074896;28;20549;-60
2022/01/22 07:09:13;;;;;;;3.80;2.23;;;4.80;99.90;;;;;;5070439;28;20213;-61
2022/01/22 07:11:39;;;;;;;5.60;3.43;;;4.90;99.90;;;;;;5071251;28;20199;-60
2022/01/22 07:14:06;;;;;;;4.47;3.53;;;4.90;99.90;;;;;;5070302;28;20186;-61
2022/01/22 07:16:31;;;;;;;5.83;3.30;;;4.90;99.90;;;;;;5079537;28;20671;-59
2022/01/22 07:19:01;;;;;;;4.30;2.80;;;4.90;99.90;;;;;;5078791;28;20439;-60
2022/01/22 07:21:29;;;;;;;6.07;3.23;;;4.80;99.90;;;;;;5085123;28;20182;-60
2022/01/22 07:24:22;;;;;;;3.53;2.80;;;4.80;99.90;;;;;;5081153;28;20449;-60
2022/01/22 07:26:40;;;;;;;3.07;2.77;;;4.70;99.90;;;;;;5079266;28;20784;-60
2022/01/22 07:29:06;;;;;;;3.50;3.00;;;4.80;99.90;;;;;;5069650;28;20472;-62
2022/01/22 07:31:31;;;;;;;9.30;2.77;;;4.90;99.90;;;;;;5071487;28;20182;-58
2022/01/22 07:33:57;;;;;;;6.90;3.03;;;4.90;99.90;;;;;;5073352;28;20220;-62
2022/01/22 07:36:22;;;;;;;5.80;3.07;;;4.70;99.90;;;;;;5074617;28;20210;-61
2022/01/22 07:38:48;;;;;;;4.33;2.83;;;4.80;99.90;;;;;;5079600;28;20213;-61
2022/01/22 07:41:15;;;;;;;4.90;3.40;;;4.60;99.90;;;;;;5072657;28;20262;-61
2022/01/22 07:43:41;;;;;;;5.30;3.30;;;4.60;99.90;;;;;;5082216;28;20197;-61
2022/01/22 07:46:08;;;;;;;5.57;3.70;;;4.50;99.90;;;;;;5076460;28;20488;-61
2022/01/22 07:48:33;;;;;;;8.83;4.27;;;4.50;99.90;;;;;;5076020;28;20212;-61
2022/01/22 07:50:59;;;;;;;4.60;3.30;;;4.50;99.90;;;;;;5082399;28;20465;-62
2022/01/22 07:53:25;;;;;;;7.93;4.00;;;4.60;99.90;;;;;;5072960;28;20180;-61
2022/01/22 07:55:51;;;;;;;6.80;3.30;;;4.80;99.90;;;;;;5070855;28;20190;-61
2022/01/22 07:58:17;;;;;;;7.03;4.63;;;4.70;99.90;;;;;;5069739;28;20184;-61
2022/01/22 08:00:43;;;;;;;4.73;3.60;;;4.70;99.90;;;;;;5072004;28;20522;-61
2022/01/22 08:03:09;;;;;;;7.73;4.17;;;4.60;99.90;;;;;;5065115;28;20182;-61
2022/01/22 08:05:37;;;;;;;7.63;3.50;;;4.70;99.90;;;;;;5089662;28;20833;-61
2022/01/22 08:08:03;;;;;;;7.37;3.93;;;4.70;99.90;;;;;;5071273;28;20457;-63
2022/01/22 08:10:29;;;;;;;5.63;3.77;;;4.70;99.90;;;;;;5069966;28;20448;-61
2022/01/22 08:12:55;;;;;;;4.03;3.53;;;4.70;99.90;;;;;;5068999;28;20453;-61
2022/01/22 08:15:21;;;;;;;4.13;2.90;;;4.90;99.90;;;;;;5052244;28;20526;-61
2022/01/22 08:17:48;;;;;;;5.93;3.60;;;4.90;99.90;;;;;;5070647;28;20205;-62
2022/01/22 08:20:14;;;;;;;3.73;2.97;;;5.00;99.90;;;;;;5069562;28;20579;-61
2022/01/22 08:22:41;;;;;;;5.47;3.50;;;5.00;99.90;;;;;;5069891;28;20453;-61
2022/01/22 08:25:07;;;;;;;6.60;3.70;;;5.00;99.90;;;;;;5070391;28;20618;-62
2022/01/22 08:28:52;;;;;;;3.37;2.80;;;4.90;99.90;;;;;;5073794;28;20507;-61
2022/01/22 08:30:22;;;;;;;4.87;3.10;;;5.20;99.90;;;;;;5071390;28;20810;-60
2022/01/22 08:38:07;;;;;;;4.90;4.10;;;5.50;99.90;;;;;;5071250;28;20847;-61
2022/01/22 08:40:32;;;;;;;5.70;4.10;;;5.50;99.90;;;;;;5069665;28;20744;-62
2022/01/22 08:42:58;;;;;;;6.57;4.60;;;5.60;99.90;;;;;;5069068;28;20455;-61
2022/01/22 08:45:24;;;;;;;4.10;3.63;;;5.60;99.90;;;;;;5071081;28;20284;-62
2022/01/22 08:47:49;;;;;;;5.00;3.23;;;5.60;53.40;;;;;;5085731;28;20587;-61
2022/01/22 08:50:15;;;;;;;4.40;3.93;;;5.50;45.10;;;;;;5085227;28;20201;-61
2022/01/22 08:52:41;;;;;;;3.67;3.30;;;5.50;37.00;;;;;;5087295;28;20189;-61
2022/01/22 08:55:07;;;;;;;4.30;3.23;;;5.60;35.30;;;;;;5073856;28;20174;-62
2022/01/22 08:57:33;;;;;;;4.93;3.70;;;5.60;35.20;;;;;;5074679;28;20182;-61
2022/01/22 08:59:59;;;;;;;6.33;3.40;;;5.70;15.30;;;;;;5070055;28;20444;-61
2022/01/22 09:02:24;;;;;;;4.03;2.80;;;5.70;6.70;;;;;;5068518;28;20463;-61
2022/01/22 09:04:52;;;;;;;4.57;3.10;;;5.80;1.00;;;;;;5081819;28;20186;-61
2022/01/22 09:07:17;;;;;;;5.13;3.10;;;5.70;1.00;;;;;;5072835;28;20185;-61
2022/01/22 09:09:43;;;;;;;3.20;2.90;;;5.60;1.00;;;;;;5081337;28;20519;-61
2022/01/22 09:12:09;;;;;;;3.07;2.60;;;5.50;1.00;;;;;;5089093;28;20192;-60
2022/01/22 09:14:35;;;;;;;4.03;2.73;;;5.50;1.00;;;;;;5076391;28;20193;-61
2022/01/22 09:17:02;;;;;;;4.67;2.87;;;5.40;1.00;;;;;;5069125;28;20464;-61
2022/01/22 09:19:33;;;;;;;6.60;3.87;;;5.40;1.00;;;;;;5072115;28;20525;-61
2022/01/22 09:22:00;;;;;;;3.33;3.00;;;;;;;;;;5072837;28;20791;-62
2022/01/22 09:24:28;;;;;;;4.37;2.70;;;;;;;;;;5074332;28;20549;-61
2022/01/22 09:26:59;;;;;;;2.50;2.23;;;;;;;;;;5073301;28;20438;-61
2022/01/22 09:29:25;;;;;;;3.27;2.63;;;5.70;1.00;;;;;;5081495;28;20462;-60
2022/01/22 09:31:51;;;;;;;3.13;2.20;;;5.60;1.00;;;;;;5084663;28;20999;-61
2022/01/22 09:34:16;;;;;;;3.37;2.70;;;5.60;1.00;;;;;;5073318;28;20448;-61
2022/01/22 09:36:42;;;;;;;5.70;3.00;;;5.70;1.00;;;;;;5074269;28;20256;-63
2022/01/22 09:39:08;;;;;;;2.60;2.13;;;5.90;1.00;;;;;;5072311;28;20202;-60
2022/01/22 09:41:34;;;;;;;3.87;2.53;;;6.00;1.00;;;;;;5073419;28;20438;-62
2022/01/22 09:44:00;;;;;;;4.23;2.73;;;6.40;1.00;;;;;;5072986;28;20176;-61
2022/01/22 09:46:27;;;;;;;5.20;2.53;;;6.60;1.00;;;;;;5074523;28;20494;-59
2022/01/22 09:48:54;;;;;;;5.07;2.70;;;6.70;1.00;;;;;;5075593;28;20207;-61
2022/01/22 09:51:19;;;;;;;3.87;2.30;;;6.70;1.00;;;;;;5077167;28;20970;-60
2022/01/22 09:53:45;;;;;;;5.10;3.10;;;6.60;1.00;;;;;;5078508;28;20430;-61
2022/01/22 09:56:12;;;;;;;3.47;2.50;;;6.40;1.00;;;;;;5073566;28;20178;-61
2022/01/22 09:58:38;;;;;;;3.87;2.57;;;6.40;1.00;;;;;;5076611;28;20496;-60
2022/01/22 10:01:25;;;;;;;5.50;2.40;;;6.30;1.00;;;;;;5077424;28;20423;-60
2022/01/22 10:03:52;;;;;;;5.23;2.50;;;6.00;1.00;;;;;;5070145;28;20447;-60
2022/01/22 10:06:23;;;;;;;3.60;2.30;;;6.10;1.00;;;;;;5069173;28;20494;-60
2022/01/22 10:08:52;;;;;;;5.23;3.13;;;6.20;1.00;;;;;;5077600;28;20520;-60
2022/01/22 10:11:26;;;;;;;3.10;2.80;;;6.20;1.00;;;;;;5069771;28;20513;-60
2022/01/22 10:13:56;;;;;;;3.07;2.33;;;6.50;1.00;;;;;;5070239;28;20444;-61
2022/01/22 10:16:27;;;;;;;3.70;2.10;;;6.50;1.00;;;;;;5071207;28;20922;-61
2022/01/22 10:19:19;;;;;;;2.60;1.90;;;6.90;1.00;;;;;;5068173;28;20453;-60
2022/01/22 10:21:52;;;;;;;3.80;2.80;;;6.90;1.00;;;;;;5075170;28;20479;-60
2022/01/22 10:24:30;;;;;;;3.67;2.07;;;6.90;1.00;;;;;;5070218;28;20448;-61
2022/01/22 10:27:27;;;;;;;4.50;1.90;;;6.90;1.00;;;;;;5071937;28;20485;-60
2022/01/22 10:30:02;;;;;;;2.80;2.40;;;6.90;1.00;;;;;;5073828;28;20447;-60
2022/01/22 10:35:15;;;;;;;3.83;2.07;;;6.80;1.00;;;;;;5076917;28;20525;-61
2022/01/22 10:37:41;;;;;;;2.17;1.70;;;6.80;1.00;;;;;;5075459;28;20440;-60
2022/01/22 10:40:21;;;;;;;4.70;2.57;;;6.70;1.00;;;;;;5063159;28;20500;-60
2022/01/22 10:42:47;;;;;;;3.17;1.70;;;6.70;1.00;;;;;;5072825;28;20425;-60
2022/01/22 10:45:19;;;;;;;2.83;2.10;;;6.70;1.00;;;;;;5074621;28;20767;-60
2022/01/22 10:47:45;;;;;;;4.57;1.53;;;6.70;1.00;;;;;;5082637;28;20479;-60
2022/01/22 10:50:22;;;;;;;3.27;1.87;;;6.90;1.00;;;;;;5072838;28;20534;-60
2022/01/22 10:52:52;;;;;;;3.13;2.23;;;7.10;1.00;;;;;;5072142;28;20435;-60
2022/01/22 10:55:19;;;;;;;3.10;1.60;;;7.10;1.00;;;;;;5069880;28;20488;-60
2022/01/22 10:58:07;;;;;;;2.53;1.70;;;7.00;1.00;;;;;;5072401;28;20929;-60
2022/01/22 11:00:34;;;;;;;3.40;1.80;;;7.10;1.00;;;;;;5090173;28;20471;-59
2022/01/22 11:03:19;;;;;;;4.20;2.67;;;7.10;1.00;;;;;;5086926;28;21346;-59
2022/01/22 11:05:45;;;;;;;6.50;3.00;;;;;;;;;;5070075;28;20468;-59
2022/01/22 11:08:13;;;;;;;2.70;2.13;;;7.20;1.00;;;;;;5070388;28;20495;-60
2022/01/22 11:10:40;;;;;;;3.33;2.60;;;7.20;1.00;;;;;;5070398;28;20520;-58
2022/01/22 11:13:06;;;;;;;6.20;2.40;;;7.40;1.00;;;;;;5070801;28;20421;-60
2022/01/22 11:15:33;;;;;;;4.70;2.40;;;7.30;1.00;;;;;;5070252;28;20422;-58
2022/01/22 11:18:00;;;;;;;2.50;1.70;;;7.20;1.00;;;;;;5070158;28;20203;-60
2022/01/22 11:20:27;;;;;;;2.20;2.00;;;7.20;1.00;;;;;;5069519;28;20498;-60
2022/01/22 11:22:53;;;;;;;3.57;2.10;;;7.30;1.00;;;;;;5073187;28;20505;-61
2022/01/22 11:25:20;;;;;;;3.00;2.10;;;7.50;1.00;;;;;;5089879;28;20830;-58
2022/01/22 11:27:46;;;;;;;7.23;1.63;;;7.50;1.00;;;;;;5090575;28;20518;-60
2022/01/22 11:30:15;;;;;;;3.20;1.40;;;8.30;1.00;;;;;;5090940;28;20428;-61
2022/01/22 11:32:52;;;;;;;1.93;1.73;;;7.60;1.00;;;;;;5090596;28;20459;-60
2022/01/22 11:35:52;;;;;;;2.50;1.93;;;7.70;1.00;;;;;;5090489;28;20516;-59
2022/01/22 11:38:29;;;;;;;2.23;2.07;;;7.40;1.00;;;;;;5090397;28;20431;-60
2022/01/22 11:41:14;;;;;;;3.50;2.33;;;7.50;1.00;;;;;;5089825;28;20429;-59
2022/01/22 11:43:56;;;;;;;1.90;1.67;;;7.50;1.00;;;;;;5072950;28;20542;-60
2022/01/22 11:46:28;;;;;;;3.10;1.43;;;;;;;;;;5074336;28;20447;-59
2022/01/22 11:49:25;;;;;;;2.07;1.90;;;7.30;1.00;;;;;;5055050;28;20459;-60
2022/01/22 11:52:10;;;;;;;3.50;1.70;;;7.20;1.00;;;;;;5074902;28;20437;-60
2022/01/22 11:54:49;;;;;;;4.53;2.30;;;7.00;1.00;;;;;;5073289;28;20428;-59
2022/01/22 11:57:16;;;;;;;3.13;2.17;;;6.90;1.00;;;;;;5073101;28;20454;-59
2022/01/22 11:59:43;;;;;;;2.50;1.80;;;7.00;1.00;;;;;;5076373;28;21107;-60
2022/01/22 12:02:16;;;;;;;3.63;2.00;;;7.10;1.00;;;;;;5071038;28;20787;-60
2022/01/22 12:04:41;;;;;;;9.33;5.33;;;7.30;1.00;;;;;;5075315;28;20444;-59
2022/01/22 12:07:07;;;;;;;14.50;7.03;;;7.40;1.00;;;;;;5086914;28;20437;-60
2022/01/22 12:15:34;;;;;;;2.20;1.67;;;7.90;1.00;;;;;;5069453;28;20481;-60
2022/01/22 12:18:09;;;;;;;7.33;2.20;;;7.80;1.00;;;;;;5069084;28;20424;-58
2022/01/22 12:23:01;;;;;;;2.90;1.40;;;7.40;1.00;;;;;;5067509;28;20957;-59
2022/01/22 12:25:30;;;;;;;3.80;1.90;;;7.10;1.00;;;;;;5067236;28;20975;-59
2022/01/22 12:27:56;;;;;;;4.13;1.60;;;7.00;1.00;;;;;;5053955;28;20518;-59
2022/01/22 12:30:49;;;;;;;3.57;1.70;;;7.00;1.00;;;;;;5068992;28;20517;-60
2022/01/22 12:33:35;;;;;;;2.37;1.60;;;6.90;1.00;;;;;;5067586;28;20975;-59
2022/01/22 12:36:10;;;;;;;5.23;1.93;;;6.80;1.00;;;;;;5070051;28;20583;-59
2022/01/22 12:38:45;;;;;;;3.50;2.03;;;;;;;;;;5069431;28;20492;-60
2022/01/22 12:44:35;;;;;;;2.77;1.87;;;6.70;1.00;;;;;;5070316;28;20419;-60
2022/01/22 12:47:10;;;;;;;4.50;1.50;;;7.00;1.00;;;;;;5070704;28;20406;-60
2022/01/22 12:49:36;;;;;;;3.03;2.00;;;7.30;1.00;;;;;;5070013;28;20915;-60
2022/01/22 12:52:05;;;;;;;4.03;2.20;;;7.60;1.00;;;;;;5068999;28;20909;-61
2022/01/22 12:54:33;;;;;;;2.73;2.03;;;7.60;1.00;;;;;;5072398;28;21158;-60
2022/01/22 12:57:10;;;;;;;11.50;2.83;;;7.80;1.00;;;;;;5075171;28;20959;-60
2022/01/22 13:00:20;;;;;;;3.80;2.30;;;7.80;1.00;;;;;;5076188;28;20505;-60
2022/01/22 13:02:47;;;;;;;2.60;1.43;;;7.10;1.00;;;;;;5073663;28;20484;-60
2022/01/22 13:05:15;;;;;;;8.13;2.50;;;7.10;1.00;;;;;;5076451;28;21055;-59
2022/01/22 13:07:45;;;;;;;3.20;2.20;;;6.80;1.00;;;;;;5073299;28;20435;-60
2022/01/22 13:10:11;;;;;;;4.70;2.80;;;6.70;1.00;;;;;;5072621;28;20449;-60
2022/01/22 13:12:42;;;;;;;2.53;2.07;;;6.70;1.00;;;;;;5054440;28;20480;-60
2022/01/22 13:15:10;;;;;;;4.60;2.50;;;6.70;1.00;;;;;;5071799;28;20194;-60
2022/01/22 13:17:37;;;;;;;2.30;2.00;;;6.80;1.00;;;;;;5073000;28;20444;-60
2022/01/22 13:20:04;;;;;;;2.40;1.77;;;6.90;1.00;;;;;;5071887;28;20941;-60
2022/01/22 13:22:38;;;;;;;4.00;2.17;;;6.80;1.00;;;;;;5071354;28;20447;-61
2022/01/22 13:25:07;;;;;;;5.33;2.87;;;6.70;1.00;;;;;;5073874;28;20468;-59
2022/01/22 13:27:33;;;;;;;3.70;2.20;;;6.70;1.00;;;;;;5074075;28;20538;-60
2022/01/22 13:29:59;;;;;;;7.13;2.27;;;6.60;1.00;;;;;;5073218;28;20440;-59
2022/01/22 13:32:41;;;;;;;4.23;2.40;;;6.50;1.00;;;;;;5078784;28;20411;-59
2022/01/22 13:49:04;;;;;;;3.27;2.37;;;6.20;1.00;;;;;;5047928;28;20838;-60
2022/01/22 13:51:30;;;;;;;2.87;2.23;;;6.30;1.00;;;;;;5092323;28;20467;-58
2022/01/22 13:53:57;;;;;;;5.83;2.80;;;6.30;1.00;;;;;;5092533;28;20518;-60
2022/01/22 13:56:49;;;;;;;5.90;2.80;;;6.20;1.00;;;;;;5074379;28;20451;-60
2022/01/22 13:59:17;;;;;;;9.73;2.60;;;6.20;1.00;;;;;;5092360;28;20502;-60
2022/01/22 14:01:52;;;;;;;3.30;2.70;;;6.30;1.00;;;;;;5092525;28;20533;-59
2022/01/22 14:04:19;;;;;;;4.63;2.67;;;6.40;1.00;;;;;;5092454;28;20442;-59
2022/01/22 14:06:46;;;;;;;4.20;1.97;;;6.50;1.00;;;;;;5073329;28;20795;-59
2022/01/22 14:09:17;;;;;;;4.30;2.40;;;6.40;1.00;;;;;;5071774;28;20465;-59
2022/01/22 14:12:06;;;;;;;2.93;2.73;;;6.30;1.00;;;;;;5071810;28;20461;-60
2022/01/22 14:15:04;;;;;;;3.87;2.93;;;6.10;1.00;;;;;;5091974;28;20931;-59
2022/01/22 14:18:08;;;;;;;3.77;2.70;;;5.90;1.00;;;;;;5091929;28;20437;-59
2022/01/22 14:20:35;;;;;;;5.53;2.57;;;5.90;1.00;;;;;;5092049;28;20539;-59
2022/01/22 14:23:04;;;;;;;4.03;3.03;;;5.90;1.00;;;;;;5091973;28;20401;-58
2022/01/22 14:25:31;;;;;;;3.13;2.40;;;5.90;1.00;;;;;;5090889;28;20465;-60
2022/01/22 14:28:06;;;;;;;3.43;2.40;;;5.80;1.00;;;;;;5091450;28;20444;-61
2022/01/22 14:30:38;;;;;;;3.23;2.80;;;5.90;1.00;;;;;;5091683;28;20512;-59
2022/01/22 14:33:05;;;;;;;3.30;2.47;;;6.00;1.00;;;;;;5055644;28;20532;-60
2022/01/22 14:35:32;;;;;;;3.63;2.87;;;6.00;1.00;;;;;;5071057;28;20408;-59
2022/01/22 14:39:01;;;;;;;4.80;3.00;;;6.10;1.00;;;;;;5071289;28;20435;-59
2022/01/22 14:44:30;;;;;;;4.07;2.90;;;6.20;1.00;;;;;;5080061;28;20444;-60
2022/01/22 14:47:16;;;;;;;5.00;3.03;;;6.20;1.00;;;;;;5071148;28;20452;-60
2022/01/22 14:49:47;;;;;;;6.80;2.87;;;6.10;1.00;;;;;;5071315;28;21046;-61
2022/01/22 14:52:15;;;;;;;3.80;2.57;;;6.20;1.00;;;;;;5071108;28;20488;-57
2022/01/22 14:54:43;;;;;;;4.33;2.77;;;6.00;1.00;;;;;;5071004;28;20991;-60
2022/01/22 14:57:11;;;;;;;4.83;3.23;;;6.00;1.00;;;;;;5070874;28;20904;-60
2022/01/22 14:59:41;;;;;;;9.43;3.37;;;6.00;1.00;;;;;;5071069;28;20443;-60
2022/01/22 15:02:07;;;;;;;3.63;2.57;;;6.00;1.00;;;;;;5086009;28;20448;-59
2022/01/22 15:04:34;;;;;;;3.77;2.93;;;6.10;1.00;;;;;;5090737;28;20762;-60
2022/01/22 15:07:03;;;;;;;6.07;3.00;;;6.00;1.00;;;;;;5072822;28;20497;-60
2022/01/22 15:09:31;;;;;;;4.50;3.27;;;6.10;1.00;;;;;;5088552;28;20478;-60
2022/01/22 15:11:58;;;;;;;5.03;3.60;;;6.10;1.00;;;;;;5070932;28;20486;-58
2022/01/22 15:14:26;;;;;;;6.30;3.30;;;6.10;1.00;;;;;;5083262;28;20432;-60